createdAt,value
2024-04-23T00:02:15.902Z,1.20
2024-04-23T00:04:43.451Z,1.30
2024-04-23T00:07:13.646Z,1.40
2024-04-23T00:09:41.169Z,1.50
2024-04-23T00:12:11.529Z,1.50
2024-04-23T00:14:39.013Z,1.50
2024-04-23T00:17:11.756Z,1.50
2024-04-23T00:19:39.234Z,1.40
2024-04-23T00:22:09.357Z,1.40
2024-04-23T00:24:36.843Z,1.40
2024-04-23T00:27:07.014Z,1.40
2024-04-23T00:29:34.474Z,1.40
2024-04-23T00:32:04.659Z,1.40
2024-04-23T00:34:34.967Z,1.40
2024-04-23T00:37:05.121Z,1.40
2024-04-23T00:39:32.604Z,1.40
2024-04-23T00:42:03.334Z,1.40
2024-04-23T00:44:30.814Z,1.30
2024-04-23T00:47:01.239Z,1.30
2024-04-23T00:49:29.010Z,1.30
2024-04-23T00:52:02.784Z,1.20
2024-04-23T00:54:32.319Z,1.20
2024-04-23T00:57:05.092Z,1.20
2024-04-23T00:59:32.827Z,1.20
2024-04-23T01:02:03.809Z,1.30
2024-04-23T01:04:31.498Z,1.30
2024-04-23T01:07:04.534Z,1.30
2024-04-23T01:09:32.203Z,1.20
2024-04-23T01:12:02.951Z,1.20
2024-04-23T01:14:31.302Z,1.20
2024-04-23T01:17:02.856Z,1.10
2024-04-23T01:19:40.986Z,1.00
2024-04-23T01:22:23.189Z,0.80
2024-04-23T01:25:17.087Z,0.80
2024-04-23T01:27:52.387Z,0.70
2024-04-23T01:30:20.430Z,0.70
2024-04-23T01:32:53.026Z,0.70
2024-04-23T01:35:21.736Z,0.70
2024-04-23T01:37:55.676Z,0.60
2024-04-23T01:40:23.950Z,0.60
2024-04-23T01:42:58.737Z,0.60
2024-04-23T01:45:26.799Z,0.60
2024-04-23T01:47:57.570Z,0.60
2024-04-23T01:50:25.211Z,0.50
2024-04-23T01:52:55.585Z,0.40
2024-04-23T01:55:23.390Z,0.40
2024-04-23T01:57:56.328Z,0.30
2024-04-23T02:00:26.478Z,0.20
2024-04-23T02:02:58.354Z,0.20
2024-04-23T02:05:28.037Z,0.10
2024-04-23T02:07:58.856Z,0.10
2024-04-23T02:10:26.865Z,0.00
2024-04-23T02:13:00.746Z,0.00
2024-04-23T02:15:28.266Z,0.00
2024-04-23T02:17:58.500Z,0.10
2024-04-23T02:20:26.131Z,0.10
2024-04-23T02:22:56.570Z,0.20
2024-04-23T02:25:24.487Z,0.20
2024-04-23T02:27:54.654Z,0.30
2024-04-23T02:30:24.832Z,0.30
2024-04-23T02:32:55.203Z,0.30
2024-04-23T02:35:22.804Z,0.20
2024-04-23T02:37:53.076Z,0.20
2024-04-23T02:40:21.086Z,0.20
2024-04-23T02:42:51.253Z,0.20
2024-04-23T02:45:18.784Z,0.10
2024-04-23T02:47:51.679Z,0.10
2024-04-23T02:50:19.273Z,0.10
2024-04-23T02:52:49.442Z,0.00
2024-04-23T02:55:16.973Z,0.00
2024-04-23T02:57:47.121Z,0.00
2024-04-23T03:00:15.890Z,0.00
2024-04-23T03:02:46.080Z,0.10
2024-04-23T03:05:16.335Z,0.10
2024-04-23T03:07:46.579Z,0.10
2024-04-23T03:10:14.367Z,0.10
2024-04-23T03:12:44.514Z,0.10
2024-04-23T03:15:12.139Z,0.00
2024-04-23T03:17:42.338Z,0.10
2024-04-23T03:20:10.489Z,0.00
2024-04-23T03:22:43.365Z,0.00
2024-04-23T03:25:10.920Z,0.10
2024-04-23T03:27:41.076Z,0.10
2024-04-23T03:30:09.402Z,0.10
2024-04-23T03:32:39.815Z,0.10
2024-04-23T03:35:07.879Z,0.10
2024-04-23T03:37:38.072Z,0.20
2024-04-23T03:40:12.747Z,0.20
2024-04-23T03:42:42.929Z,0.20
2024-04-23T03:45:13.098Z,0.20
2024-04-23T03:47:43.758Z,0.30
2024-04-23T03:50:11.375Z,0.30
2024-04-23T03:52:41.564Z,0.30
2024-04-23T03:55:11.754Z,0.40
2024-04-23T03:57:41.922Z,0.30
2024-04-23T04:00:10.619Z,0.30
2024-04-23T04:02:56.507Z,0.40
2024-04-23T04:05:42.493Z,0.30
2024-04-23T04:08:12.671Z,0.30
2024-04-23T04:10:45.594Z,0.40
2024-04-23T04:13:21.494Z,0.30
2024-04-23T04:15:51.963Z,0.30
2024-04-23T04:18:22.629Z,0.40
2024-04-23T04:20:50.281Z,0.30
2024-04-23T04:23:20.455Z,0.30
2024-04-23T04:25:51.563Z,0.30
2024-04-23T04:28:21.774Z,0.30
2024-04-23T04:30:49.359Z,0.30
2024-04-23T04:33:19.647Z,0.30
2024-04-23T04:35:47.200Z,0.40
2024-04-23T04:38:17.588Z,0.40
2024-04-23T04:40:45.195Z,0.50
2024-04-23T04:43:18.092Z,0.50
2024-04-23T04:45:45.606Z,0.50
2024-04-23T04:48:15.983Z,0.60
2024-04-23T04:50:43.644Z,0.60
2024-04-23T04:53:13.807Z,0.70
2024-04-23T04:55:41.461Z,0.70
2024-04-23T04:58:11.627Z,0.80
2024-04-23T05:00:44.453Z,0.90
2024-04-23T05:03:15.159Z,1.00
2024-04-23T05:05:42.736Z,1.10
2024-04-23T05:08:13.024Z,1.20
2024-04-23T05:10:40.614Z,1.30
2024-04-23T05:13:11.326Z,1.50
2024-04-23T05:15:41.558Z,1.60
2024-04-23T05:18:11.872Z,1.70
2024-04-23T05:20:39.906Z,1.70
2024-04-23T05:23:10.085Z,1.80
2024-04-23T05:25:37.645Z,1.80
2024-04-23T05:28:08.628Z,1.90
2024-04-23T05:30:54.598Z,2.00
2024-04-23T05:33:27.552Z,2.10
2024-04-23T05:35:57.752Z,2.10
2024-04-23T05:38:28.594Z,2.20
2024-04-23T05:40:58.903Z,2.30
2024-04-23T05:43:29.114Z,2.30
2024-04-23T05:45:59.290Z,2.30
2024-04-23T05:49:25.498Z,2.40
2024-04-23T05:52:51.711Z,2.50
2024-04-23T05:55:44.910Z,2.70
2024-04-23T05:58:14.427Z,2.80
2024-04-23T06:00:44.650Z,3.00
2024-04-23T06:03:12.181Z,3.10
2024-04-23T06:05:42.345Z,3.20
2024-04-23T06:08:10.997Z,3.30
2024-04-23T06:10:44.038Z,3.40
2024-04-23T06:13:11.660Z,3.50
2024-04-23T06:15:41.845Z,3.50
2024-04-23T06:18:09.459Z,3.60
2024-04-23T06:20:39.684Z,3.60
2024-04-23T06:23:07.260Z,3.60
2024-04-23T06:25:39.231Z,3.60
2024-04-23T06:28:10.336Z,3.80
2024-04-23T06:30:40.471Z,4.00
2024-04-23T06:33:08.043Z,4.10
2024-04-23T06:35:38.261Z,4.30
2024-04-23T06:38:05.975Z,4.40
2024-04-23T06:40:36.292Z,4.50
2024-04-23T06:43:06.530Z,4.70
2024-04-23T06:45:36.767Z,4.80
2024-04-23T06:48:07.434Z,4.90
2024-04-23T06:50:34.965Z,5.10
2024-04-23T06:53:07.768Z,5.20
2024-04-23T06:55:35.704Z,5.40
2024-04-23T06:58:05.944Z,5.50
2024-04-23T07:00:36.881Z,5.70
2024-04-23T07:03:07.938Z,5.80
2024-04-23T07:05:35.496Z,5.90
2024-04-23T07:08:05.793Z,6.00
2024-04-23T07:10:34.038Z,6.10
2024-04-23T07:13:04.233Z,6.20
2024-04-23T07:15:31.767Z,6.40
2024-04-23T07:18:07.182Z,6.50
2024-04-23T07:20:34.890Z,6.50
2024-04-23T07:23:05.121Z,6.60
2024-04-23T07:25:32.818Z,6.70
2024-04-23T07:28:03.008Z,6.80
2024-04-23T07:30:30.536Z,6.90
2024-04-23T07:33:03.400Z,6.90
2024-04-23T07:35:31.107Z,6.90
2024-04-23T07:38:01.370Z,6.90
2024-04-23T07:40:29.105Z,6.90
2024-04-23T07:42:59.266Z,6.90
2024-04-23T07:45:26.829Z,6.90
2024-04-23T07:47:57.330Z,6.90
2024-04-23T07:50:27.940Z,7.00
2024-04-23T07:52:58.351Z,7.10
2024-04-23T07:55:25.901Z,7.20
2024-04-23T07:57:56.038Z,7.30
2024-04-23T08:00:25.478Z,7.40
2024-04-23T08:02:59.174Z,7.50
2024-04-23T08:05:29.588Z,7.50
2024-04-23T08:07:59.738Z,7.60
2024-04-23T08:10:27.316Z,7.70
2024-04-23T08:12:57.467Z,8.00
2024-04-23T08:15:24.980Z,8.40
2024-04-23T08:17:55.333Z,8.80
2024-04-23T08:20:23.973Z,9.00
2024-04-23T08:23:01.967Z,9.20
2024-04-23T08:25:29.506Z,9.50
2024-04-23T08:27:59.677Z,9.80
2024-04-23T08:30:27.201Z,10.00
2024-04-23T08:32:57.497Z,9.90
2024-04-23T08:35:25.689Z,9.80
2024-04-23T08:37:57.961Z,9.60
2024-04-23T08:40:28.687Z,9.50
2024-04-23T08:43:08.901Z,9.50
2024-04-23T08:45:39.322Z,9.40
2024-04-23T08:48:11.320Z,9.40
2024-04-23T08:50:39.787Z,9.30
2024-04-23T08:53:11.851Z,9.30
2024-04-23T08:55:45.982Z,9.20
2024-04-23T08:58:17.432Z,9.10
2024-04-23T09:00:53.474Z,8.90
2024-04-23T09:03:29.649Z,8.90
2024-04-23T09:05:57.577Z,9.00
2024-04-23T09:08:28.088Z,9.30
2024-04-23T09:11:00.519Z,9.60
2024-04-23T09:13:30.853Z,10.10
2024-04-23T09:15:59.333Z,10.40
2024-04-23T09:18:32.589Z,10.40
2024-04-23T09:21:03.413Z,10.50
2024-04-23T09:23:35.069Z,10.90
2024-04-23T09:26:06.463Z,11.30
2024-04-23T09:28:38.276Z,11.50
2024-04-23T09:31:08.782Z,12.00
2024-04-23T09:33:39.006Z,12.50
2024-04-23T09:36:10.229Z,12.70
2024-04-23T09:38:40.995Z,12.60
2024-04-23T09:41:11.884Z,12.70
2024-04-23T09:43:42.555Z,12.70
2024-04-23T09:46:11.398Z,12.90
2024-04-23T09:48:43.856Z,13.20
2024-04-23T09:51:11.431Z,13.50
2024-04-23T09:53:43.253Z,13.50
2024-04-23T09:56:15.516Z,13.50
2024-04-23T09:58:45.804Z,13.40
2024-04-23T10:01:16.733Z,13.20
2024-04-23T10:03:51.676Z,12.90
2024-04-23T10:06:24.818Z,12.80
2024-04-23T10:09:05.865Z,12.80
2024-04-23T10:11:44.842Z,13.00
2024-04-23T10:14:24.449Z,12.80
2024-04-23T10:17:01.739Z,12.60
2024-04-23T10:19:36.249Z,12.40
2024-04-23T10:22:06.861Z,12.40
2024-04-23T10:24:37.412Z,12.40
2024-04-23T10:27:08.961Z,12.40
2024-04-23T10:29:40.471Z,12.40
2024-04-23T10:32:12.475Z,12.40
2024-04-23T10:34:45.658Z,12.30
2024-04-23T10:37:16.432Z,12.30
2024-04-23T10:39:48.363Z,12.20
2024-04-23T10:42:20.678Z,12.10
2024-04-23T10:44:51.582Z,11.90
2024-04-23T10:47:19.237Z,12.00
2024-04-23T10:49:55.195Z,12.30
2024-04-23T10:52:23.554Z,12.50
2024-04-23T10:54:54.294Z,12.60
2024-04-23T10:57:26.943Z,12.60
2024-04-23T10:59:57.238Z,12.50
2024-04-23T11:02:27.258Z,12.40
2024-04-23T11:04:58.467Z,12.30
2024-04-23T11:07:28.480Z,12.30
2024-04-23T11:10:01.881Z,12.30
2024-04-23T11:12:37.795Z,12.50
2024-04-23T11:15:17.890Z,12.90
2024-04-23T11:17:45.565Z,12.90
2024-04-23T11:20:15.937Z,12.70
2024-04-23T11:22:51.092Z,12.50
2024-04-23T11:25:35.255Z,12.40
2024-04-23T11:28:06.611Z,12.50
2024-04-23T11:30:37.179Z,12.80
2024-04-23T11:33:07.886Z,12.90
2024-04-23T11:35:39.980Z,12.90
2024-04-23T11:38:10.209Z,12.70
2024-04-23T11:40:37.813Z,12.50
2024-04-23T11:43:10.719Z,12.60
2024-04-23T11:45:38.816Z,12.90
2024-04-23T11:48:09.883Z,13.50
2024-04-23T11:50:37.550Z,13.80
2024-04-23T11:53:08.459Z,13.80
2024-04-23T11:55:36.438Z,13.70
2024-04-23T11:58:07.145Z,13.40
2024-04-23T12:00:39.684Z,13.10
2024-04-23T12:03:10.130Z,13.10
2024-04-23T12:05:39.176Z,13.10
2024-04-23T12:08:10.066Z,13.00
2024-04-23T12:10:41.721Z,12.90
2024-04-23T12:13:09.434Z,12.70
2024-04-23T12:15:42.349Z,12.40
2024-04-23T12:18:10.051Z,12.20
2024-04-23T12:20:41.393Z,12.10
2024-04-23T12:23:12.290Z,12.10
2024-04-23T12:25:44.497Z,12.40
2024-04-23T12:28:12.626Z,13.00
2024-04-23T12:30:46.625Z,13.20
2024-04-23T12:33:15.380Z,13.50
2024-04-23T12:35:46.258Z,14.00
2024-04-23T12:38:14.303Z,14.50
2024-04-23T12:40:45.774Z,14.80
2024-04-23T12:43:14.840Z,14.90
2024-04-23T12:45:47.977Z,14.70
2024-04-23T12:48:15.644Z,14.50
2024-04-23T12:50:45.870Z,14.30
2024-04-23T12:53:13.850Z,14.00
2024-04-23T12:55:44.496Z,13.80
2024-04-23T12:58:12.165Z,13.80
2024-04-23T13:00:42.403Z,13.70
2024-04-23T13:03:15.347Z,13.50
2024-04-23T13:05:46.982Z,13.30
2024-04-23T13:08:17.298Z,13.10
2024-04-23T13:10:45.002Z,13.00
2024-04-23T13:13:15.600Z,13.00
2024-04-23T13:15:46.505Z,13.00
2024-04-23T13:18:19.504Z,13.20
2024-04-23T13:20:47.106Z,13.10
2024-04-23T13:23:17.391Z,12.90
2024-04-23T13:25:44.996Z,12.80
2024-04-23T13:28:15.267Z,12.90
2024-04-23T13:30:42.774Z,13.00
2024-04-23T13:33:13.001Z,13.10
2024-04-23T13:35:43.218Z,12.80
2024-04-23T13:38:13.912Z,12.50
2024-04-23T13:40:41.517Z,12.30
2024-04-23T13:43:15.233Z,12.20
2024-04-23T13:45:45.546Z,12.20
2024-04-23T13:48:13.115Z,12.30
2024-04-23T13:50:46.038Z,12.40
2024-04-23T13:53:13.606Z,12.50
2024-04-23T13:55:43.746Z,12.70
2024-04-23T13:58:11.302Z,12.80
2024-04-23T14:00:41.508Z,12.90
2024-04-23T14:03:09.091Z,13.00
2024-04-23T14:05:39.898Z,12.80
2024-04-23T14:08:10.358Z,12.50
2024-04-23T14:10:40.572Z,12.30
2024-04-23T14:13:08.100Z,12.10
2024-04-23T14:15:38.321Z,12.10
2024-04-23T14:18:06.313Z,12.10
2024-04-23T14:20:37.578Z,12.00
2024-04-23T14:23:05.449Z,11.60
2024-04-23T14:25:38.412Z,11.30
2024-04-23T14:28:10.849Z,11.20
2024-04-23T14:30:41.049Z,11.20
2024-04-23T14:33:08.644Z,11.30
2024-04-23T14:35:40.327Z,11.40
2024-04-23T14:38:07.909Z,11.50
2024-04-23T14:40:40.794Z,11.70
2024-04-23T14:43:08.364Z,11.70
2024-04-23T14:45:38.692Z,11.60
2024-04-23T14:48:07.432Z,11.40
2024-04-23T14:50:38.425Z,11.30
2024-04-23T14:53:05.987Z,11.40
2024-04-23T14:55:36.198Z,11.30
2024-04-23T14:58:06.432Z,11.30
2024-04-23T15:00:37.357Z,11.10
2024-04-23T15:03:05.602Z,11.00
2024-04-23T15:05:35.780Z,11.00
2024-04-23T15:08:03.708Z,10.90
2024-04-23T15:10:34.798Z,10.70
2024-04-23T15:13:02.325Z,10.60
2024-04-23T15:15:35.097Z,10.40
2024-04-23T15:18:02.721Z,10.10
2024-04-23T15:20:32.909Z,10.00
2024-04-23T15:23:00.493Z,9.90
2024-04-23T15:25:31.506Z,9.80
2024-04-23T15:27:59.338Z,9.80
2024-04-23T15:30:29.772Z,9.70
2024-04-23T15:33:00.205Z,9.60
2024-04-23T15:35:30.555Z,9.40
2024-04-23T15:37:58.223Z,9.30
2024-04-23T15:40:28.493Z,9.30
2024-04-23T15:42:56.031Z,9.20
2024-04-23T15:45:26.214Z,9.20
2024-04-23T15:47:54.897Z,9.10
2024-04-23T15:50:27.867Z,9.10
2024-04-23T15:52:55.465Z,9.10
2024-04-23T15:55:25.646Z,9.10
2024-04-23T15:57:53.173Z,9.10
2024-04-23T16:00:23.395Z,9.00
2024-04-23T16:02:51.054Z,9.00
2024-04-23T16:05:21.408Z,9.00
2024-04-23T16:07:54.258Z,8.90
2024-04-23T16:10:21.816Z,8.80
2024-04-23T16:12:54.607Z,8.80
2024-04-23T16:15:23.024Z,8.80
2024-04-23T16:17:53.318Z,8.80
2024-04-23T16:20:20.953Z,8.70
2024-04-23T16:22:53.888Z,8.70
2024-04-23T16:25:21.411Z,8.70
2024-04-23T16:27:52.360Z,8.60
2024-04-23T16:30:19.882Z,8.60
2024-04-23T16:32:50.112Z,8.60
2024-04-23T16:35:17.827Z,8.60
2024-04-23T16:37:48.167Z,8.50
2024-04-23T16:40:18.514Z,8.50
2024-04-23T16:42:48.758Z,8.40
2024-04-23T16:45:16.301Z,8.40
2024-04-23T16:47:46.487Z,8.30
2024-04-23T16:50:14.290Z,8.30
2024-04-23T16:52:44.753Z,8.30
2024-04-23T16:55:12.388Z,8.20
2024-04-23T16:57:45.369Z,8.20
2024-04-23T17:00:14.366Z,8.20
2024-04-23T17:02:44.567Z,8.20
2024-04-23T17:05:12.217Z,8.10
2024-04-23T17:07:42.464Z,8.10
2024-04-23T17:10:10.529Z,8.00
2024-04-23T17:12:40.681Z,8.00
2024-04-23T17:15:10.975Z,7.90
2024-04-23T17:17:41.340Z,7.90
2024-04-23T17:20:13.753Z,7.90
2024-04-23T17:22:42.409Z,7.90
2024-04-23T17:25:12.716Z,7.80
2024-04-23T17:27:40.318Z,7.80
2024-04-23T17:30:14.279Z,7.80
2024-04-23T17:32:42.018Z,7.70
2024-04-23T17:35:13.375Z,7.70
2024-04-23T17:37:42.105Z,7.70
2024-04-23T17:40:13.511Z,7.70
2024-04-23T17:42:41.062Z,7.60
2024-04-23T17:45:14.470Z,7.60
2024-04-23T17:47:42.296Z,7.60
2024-04-23T17:50:13.199Z,7.60
2024-04-23T17:52:40.823Z,7.60
2024-04-23T17:55:11.072Z,7.60
2024-04-23T17:57:38.576Z,7.60
2024-04-23T18:00:10.671Z,7.60
2024-04-23T18:02:40.948Z,7.60
2024-04-23T18:05:11.167Z,7.50
2024-04-23T18:07:38.756Z,7.50
2024-04-23T18:10:10.279Z,7.50
2024-04-23T18:12:37.857Z,7.40
2024-04-23T18:15:08.998Z,7.40
2024-04-23T18:17:37.022Z,7.30
2024-04-23T18:20:11.553Z,7.30
2024-04-23T18:22:39.110Z,7.30
2024-04-23T18:25:09.565Z,7.30
2024-04-23T18:27:37.208Z,7.30
2024-04-23T18:30:08.488Z,7.20
2024-04-23T18:32:36.190Z,7.20
2024-04-23T18:35:09.463Z,7.10
2024-04-23T18:37:37.799Z,7.10
2024-04-23T18:40:09.098Z,7.10
2024-04-23T18:42:37.699Z,7.00
2024-04-23T18:45:09.406Z,7.00
2024-04-23T18:47:37.093Z,7.00
2024-04-23T18:50:11.812Z,7.00
2024-04-23T18:52:39.581Z,7.00
2024-04-23T18:55:10.408Z,6.90
2024-04-23T18:57:37.952Z,7.00
2024-04-23T19:00:10.260Z,7.00
2024-04-23T19:02:37.901Z,6.90
2024-04-23T19:05:11.091Z,7.00
2024-04-23T19:07:38.713Z,7.00
2024-04-23T19:10:12.261Z,7.00
2024-04-23T19:12:39.786Z,7.10
2024-04-23T19:15:10.166Z,7.10
2024-04-23T19:17:37.820Z,7.00
2024-04-23T19:20:13.787Z,7.00
2024-04-23T19:22:41.498Z,7.00
2024-04-23T19:25:11.892Z,6.90
2024-04-23T19:27:39.460Z,6.90
2024-04-23T19:30:11.554Z,6.90
2024-04-23T19:32:39.272Z,6.80
2024-04-23T19:35:12.249Z,6.80
2024-04-23T19:37:39.807Z,6.80
2024-04-23T19:40:11.628Z,6.80
2024-04-23T19:42:39.791Z,6.80
2024-04-23T19:45:10.960Z,6.80
2024-04-23T19:47:39.302Z,6.90
2024-04-23T19:50:12.465Z,6.90
2024-04-23T19:52:40.163Z,6.90
2024-04-23T19:55:10.955Z,6.90
2024-04-23T19:57:57.114Z,6.90
2024-04-23T20:00:28.415Z,6.80
2024-04-23T20:02:58.585Z,6.80
2024-04-23T20:05:31.482Z,6.90
2024-04-23T20:08:01.761Z,6.80
2024-04-23T20:10:32.034Z,6.80
2024-04-23T20:13:02.415Z,6.80
2024-04-23T20:15:32.574Z,6.80
2024-04-23T20:18:03.697Z,6.80
2024-04-23T20:20:36.548Z,6.80
2024-04-23T20:23:08.854Z,6.80
2024-04-23T20:25:44.223Z,6.70
2024-04-23T20:28:15.114Z,6.70
2024-04-23T20:30:45.326Z,6.70
2024-04-23T20:33:15.557Z,6.70
2024-04-23T20:35:48.417Z,6.70
2024-04-23T20:38:18.659Z,6.70
2024-04-23T20:40:48.894Z,6.60
2024-04-23T20:43:19.151Z,6.60
2024-04-23T20:45:46.682Z,6.60
2024-04-23T20:48:19.504Z,6.60
2024-04-23T20:50:54.945Z,6.60
2024-04-23T20:53:26.079Z,6.60
2024-04-23T20:55:56.359Z,6.60
2024-04-23T20:58:26.586Z,6.50
2024-04-23T21:00:56.798Z,6.50
2024-04-23T21:03:26.989Z,6.50
2024-04-23T21:05:59.755Z,6.50
2024-04-23T21:08:30.035Z,6.40
2024-04-23T21:11:00.298Z,6.40
2024-04-23T21:13:31.965Z,6.30
2024-04-23T21:16:02.670Z,6.30
2024-04-23T21:18:32.887Z,6.20
2024-04-23T21:21:05.813Z,6.10
2024-04-23T21:23:36.003Z,6.00
2024-04-23T21:26:06.440Z,5.90
2024-04-23T21:28:34.080Z,5.80
2024-04-23T21:31:04.968Z,5.80
2024-04-23T21:33:35.771Z,5.70
2024-04-23T21:36:10.140Z,5.70
2024-04-23T21:38:45.821Z,5.60
2024-04-23T21:41:18.184Z,5.50
2024-04-23T21:43:49.104Z,5.40
2024-04-23T21:46:19.685Z,5.40
2024-04-23T21:48:50.124Z,5.30
2024-04-23T21:51:24.750Z,5.20
2024-04-23T21:53:56.159Z,5.10
2024-04-23T21:56:26.344Z,5.00
2024-04-23T21:58:56.610Z,5.00
2024-04-23T22:01:26.945Z,4.90
2024-04-23T22:03:57.261Z,4.90
2024-04-23T22:06:30.081Z,4.80
2024-04-23T22:09:00.212Z,4.70
2024-04-23T22:11:30.489Z,4.60
2024-04-23T22:14:00.748Z,4.50
2024-04-23T22:16:30.954Z,4.50
2024-04-23T22:18:58.492Z,4.40
2024-04-23T22:21:31.322Z,4.40
2024-04-23T22:24:01.539Z,4.30
2024-04-23T22:26:31.700Z,4.20
2024-04-23T22:29:01.895Z,4.20
2024-04-23T22:31:29.619Z,4.10
2024-04-23T22:33:59.769Z,4.10
2024-04-23T22:36:32.598Z,4.00
2024-04-23T22:39:02.761Z,4.00
2024-04-23T22:41:32.922Z,3.90
2024-04-23T22:44:03.103Z,3.90
2024-04-23T22:46:33.486Z,3.80
2024-04-23T22:49:04.249Z,3.70
2024-04-23T22:51:37.111Z,3.60
2024-04-23T22:54:07.639Z,3.50
2024-04-23T22:56:37.817Z,3.50
2024-04-23T22:59:08.045Z,3.50
2024-04-23T23:01:38.425Z,3.50
2024-04-23T23:04:09.144Z,3.50
2024-04-23T23:06:39.394Z,3.50
2024-04-23T23:09:09.897Z,3.40
2024-04-23T23:11:40.188Z,3.40
2024-04-23T23:14:10.463Z,3.30
2024-04-23T23:16:41.116Z,3.20
2024-04-23T23:19:11.317Z,3.10
2024-04-23T23:21:44.151Z,3.10
2024-04-23T23:24:14.285Z,3.00
2024-04-23T23:26:44.455Z,3.00
2024-04-23T23:29:14.727Z,2.90
2024-04-23T23:31:42.325Z,2.90
2024-04-23T23:34:12.512Z,2.80
2024-04-23T23:36:45.574Z,2.80
2024-04-23T23:39:15.803Z,2.70
2024-04-23T23:41:45.985Z,2.70
2024-04-23T23:44:16.233Z,2.70
2024-04-23T23:46:46.560Z,2.70
2024-04-23T23:49:16.813Z,2.70
2024-04-23T23:51:49.732Z,2.70
2024-04-23T23:54:21.217Z,2.60
2024-04-23T23:56:51.576Z,2.70
2024-04-23T23:59:21.764Z,2.70
